sensor_id;sensor_type;location;lat;lon;timestamp;pressure;altitude;pressure_sealevel;temperature;humidity
20444;BME280;10381;53.730;10.010;2022-09-30T00:03:13;100328.69;;;6.58;100.00
20444;BME280;10381;53.730;10.010;2022-09-30T00:07:13;100331.06;;;6.61;100.00
20444;BME280;10381;53.730;10.010;2022-09-30T00:11:17;100332.28;;;6.57;100.00
20444;BME280;10381;53.730;10.010;2022-09-30T00:15:18;100331.56;;;6.55;100.00
20444;BME280;10381;53.730;10.010;2022-09-30T00:19:19;100327.44;;;6.85;100.00
20444;BME280;10381;53.730;10.010;2022-09-30T00:23:20;100333.16;;;7.01;100.00
20444;BME280;10381;53.730;10.010;2022-09-30T00:27:21;100336.16;;;6.85;100.00
20444;BME280;10381;53.730;10.010;2022-09-30T00:31:23;100338.44;;;6.90;100.00
20444;BME280;10381;53.730;10.010;2022-09-30T00:35:23;100346.22;;;7.02;100.00
20444;BME280;10381;53.730;10.010;2022-09-30T00:39:26;100351.06;;;7.18;100.00
20444;BME280;10381;53.730;10.010;2022-09-30T00:43:44;100344.16;;;7.38;100.00
20444;BME280;10381;53.730;10.010;2022-09-30T00:47:54;100348.81;;;7.46;100.00
20444;BME280;10381;53.730;10.010;2022-09-30T00:51:56;100346.03;;;7.47;100.00
20444;BME280;10381;53.730;10.010;2022-09-30T00:56:10;100348.38;;;7.41;100.00
20444;BME280;10381;53.730;10.010;2022-09-30T01:00:12;100351.59;;;7.01;100.00
20444;BME280;10381;53.730;10.010;2022-09-30T01:04:17;100350.84;;;7.10;100.00
20444;BME280;10381;53.730;10.010;2022-09-30T01:08:20;100354.31;;;7.11;100.00
20444;BME280;10381;53.730;10.010;2022-09-30T01:12:23;100348.34;;;6.97;100.00
20444;BME280;10381;53.730;10.010;2022-09-30T01:20:57;100357.94;;;6.87;100.00
20444;BME280;10381;53.730;10.010;2022-09-30T01:42:34;100358.34;;;6.60;100.00
20444;BME280;10381;53.730;10.010;2022-09-30T01:46:40;100356.19;;;6.54;100.00
20444;BME280;10381;53.730;10.010;2022-09-30T01:55:00;100359.06;;;6.51;100.00
20444;BME280;10381;53.730;10.010;2022-09-30T01:59:07;100360.13;;;6.37;100.00
20444;BME280;10381;53.730;10.010;2022-09-30T02:03:17;100367.56;;;6.54;100.00
20444;BME280;10381;53.730;10.010;2022-09-30T02:07:27;100367.81;;;5.93;100.00
20444;BME280;10381;53.730;10.010;2022-09-30T02:11:32;100369.91;;;5.66;100.00
20444;BME280;10381;53.730;10.010;2022-09-30T02:15:38;100370.41;;;5.47;100.00
20444;BME280;10381;53.730;10.010;2022-09-30T02:19:45;100371.50;;;5.20;100.00
20444;BME280;10381;53.730;10.010;2022-09-30T02:23:48;100379.59;;;5.41;100.00
20444;BME280;10381;53.730;10.010;2022-09-30T02:27:55;100378.16;;;5.72;100.00
20444;BME280;10381;53.730;10.010;2022-09-30T02:32:04;100388.97;;;5.92;100.00
20444;BME280;10381;53.730;10.010;2022-09-30T02:36:11;100384.59;;;6.04;100.00
20444;BME280;10381;53.730;10.010;2022-09-30T02:40:30;100377.81;;;5.77;100.00
20444;BME280;10381;53.730;10.010;2022-09-30T02:44:36;100388.13;;;5.56;100.00
20444;BME280;10381;53.730;10.010;2022-09-30T02:48:45;100398.03;;;5.52;100.00
20444;BME280;10381;53.730;10.010;2022-09-30T02:57:41;100390.22;;;5.99;100.00
20444;BME280;10381;53.730;10.010;2022-09-30T03:01:49;100393.22;;;6.06;100.00
20444;BME280;10381;53.730;10.010;2022-09-30T03:05:50;100408.78;;;6.20;100.00
20444;BME280;10381;53.730;10.010;2022-09-30T03:09:55;100402.56;;;6.32;100.00
20444;BME280;10381;53.730;10.010;2022-09-30T03:26:43;100426.78;;;6.71;100.00
20444;BME280;10381;53.730;10.010;2022-09-30T03:31:33;100426.31;;;6.77;100.00
20444;BME280;10381;53.730;10.010;2022-09-30T03:39:53;100422.59;;;6.91;100.00
20444;BME280;10381;53.730;10.010;2022-09-30T03:44:09;100428.78;;;7.01;100.00
20444;BME280;10381;53.730;10.010;2022-09-30T03:48:11;100428.22;;;6.98;100.00
20444;BME280;10381;53.730;10.010;2022-09-30T03:52:14;100427.84;;;6.91;100.00
20444;BME280;10381;53.730;10.010;2022-09-30T03:56:26;100429.41;;;6.94;100.00
20444;BME280;10381;53.730;10.010;2022-09-30T04:00:27;100434.31;;;6.98;100.00
20444;BME280;10381;53.730;10.010;2022-09-30T04:04:28;100434.91;;;7.02;100.00
20444;BME280;10381;53.730;10.010;2022-09-30T04:08:28;100437.53;;;7.02;100.00
20444;BME280;10381;53.730;10.010;2022-09-30T04:12:29;100446.63;;;7.09;100.00
20444;BME280;10381;53.730;10.010;2022-09-30T04:16:29;100451.66;;;7.12;100.00
20444;BME280;10381;53.730;10.010;2022-09-30T04:20:31;100452.72;;;7.21;100.00
20444;BME280;10381;53.730;10.010;2022-09-30T04:24:32;100453.78;;;7.30;100.00
20444;BME280;10381;53.730;10.010;2022-09-30T04:28:33;100459.16;;;7.39;100.00
20444;BME280;10381;53.730;10.010;2022-09-30T04:32:33;100461.69;;;7.41;100.00
20444;BME280;10381;53.730;10.010;2022-09-30T04:36:33;100464.19;;;7.42;100.00
20444;BME280;10381;53.730;10.010;2022-09-30T04:40:37;100467.44;;;7.46;100.00
20444;BME280;10381;53.730;10.010;2022-09-30T04:44:37;100471.59;;;7.49;100.00
20444;BME280;10381;53.730;10.010;2022-09-30T04:48:38;100474.34;;;7.47;100.00
20444;BME280;10381;53.730;10.010;2022-09-30T04:52:41;100480.09;;;7.52;100.00
20444;BME280;10381;53.730;10.010;2022-09-30T04:56:41;100488.97;;;7.51;100.00
20444;BME280;10381;53.730;10.010;2022-09-30T05:00:42;100488.84;;;7.53;100.00
20444;BME280;10381;53.730;10.010;2022-09-30T05:04:42;100489.56;;;7.55;100.00
20444;BME280;10381;53.730;10.010;2022-09-30T05:08:42;100500.00;;;7.56;100.00
20444;BME280;10381;53.730;10.010;2022-09-30T05:12:43;100509.56;;;7.57;100.00
20444;BME280;10381;53.730;10.010;2022-09-30T05:16:45;100510.53;;;7.56;100.00
20444;BME280;10381;53.730;10.010;2022-09-30T05:20:48;100506.22;;;7.55;100.00
20444;BME280;10381;53.730;10.010;2022-09-30T05:24:49;100516.63;;;7.57;100.00
20444;BME280;10381;53.730;10.010;2022-09-30T05:28:49;100525.38;;;7.57;100.00
20444;BME280;10381;53.730;10.010;2022-09-30T05:32:49;100519.88;;;7.60;100.00
20444;BME280;10381;53.730;10.010;2022-09-30T05:36:50;100533.75;;;7.62;100.00
20444;BME280;10381;53.730;10.010;2022-09-30T05:40:50;100534.72;;;7.61;100.00
20444;BME280;10381;53.730;10.010;2022-09-30T05:44:51;100529.91;;;7.66;100.00
20444;BME280;10381;53.730;10.010;2022-09-30T05:48:52;100525.63;;;7.65;100.00
20444;BME280;10381;53.730;10.010;2022-09-30T05:52:53;100526.06;;;7.71;100.00
20444;BME280;10381;53.730;10.010;2022-09-30T05:56:53;100522.81;;;7.78;100.00
20444;BME280;10381;53.730;10.010;2022-09-30T06:00:54;100522.00;;;7.78;100.00
20444;BME280;10381;53.730;10.010;2022-09-30T06:04:54;100523.69;;;7.67;100.00
20444;BME280;10381;53.730;10.010;2022-09-30T06:08:55;100527.66;;;7.62;100.00
20444;BME280;10381;53.730;10.010;2022-09-30T06:12:55;100531.84;;;7.64;100.00
20444;BME280;10381;53.730;10.010;2022-09-30T06:16:57;100537.69;;;7.79;100.00
20444;BME280;10381;53.730;10.010;2022-09-30T06:21:01;100548.53;;;7.97;100.00
20444;BME280;10381;53.730;10.010;2022-09-30T06:25:04;100556.19;;;8.11;100.00
20444;BME280;10381;53.730;10.010;2022-09-30T06:29:04;100560.63;;;8.43;100.00
20444;BME280;10381;53.730;10.010;2022-09-30T06:33:05;100555.88;;;8.26;100.00
20444;BME280;10381;53.730;10.010;2022-09-30T06:37:05;100554.75;;;8.07;100.00
20444;BME280;10381;53.730;10.010;2022-09-30T06:41:06;100563.09;;;7.92;100.00
20444;BME280;10381;53.730;10.010;2022-09-30T06:45:07;100568.47;;;7.90;100.00
20444;BME280;10381;53.730;10.010;2022-09-30T06:49:09;100563.19;;;8.01;100.00
20444;BME280;10381;53.730;10.010;2022-09-30T06:53:10;100574.19;;;8.06;100.00
20444;BME280;10381;53.730;10.010;2022-09-30T06:57:11;100570.16;;;8.23;100.00
20444;BME280;10381;53.730;10.010;2022-09-30T07:01:12;100566.56;;;8.24;100.00
20444;BME280;10381;53.730;10.010;2022-09-30T07:05:14;100569.72;;;8.50;100.00
20444;BME280;10381;53.730;10.010;2022-09-30T07:09:15;100564.44;;;8.39;100.00
20444;BME280;10381;53.730;10.010;2022-09-30T07:13:15;100566.75;;;8.44;100.00
20444;BME280;10381;53.730;10.010;2022-09-30T07:17:15;100563.47;;;8.72;100.00
20444;BME280;10381;53.730;10.010;2022-09-30T07:21:17;100565.09;;;8.64;100.00
20444;BME280;10381;53.730;10.010;2022-09-30T07:25:17;100564.50;;;8.81;100.00
20444;BME280;10381;53.730;10.010;2022-09-30T07:29:18;100568.00;;;8.82;100.00
20444;BME280;10381;53.730;10.010;2022-09-30T07:33:19;100562.03;;;8.89;100.00
20444;BME280;10381;53.730;10.010;2022-09-30T07:37:19;100571.56;;;9.02;100.00
20444;BME280;10381;53.730;10.010;2022-09-30T07:41:24;100575.28;;;9.20;100.00
20444;BME280;10381;53.730;10.010;2022-09-30T07:45:27;100581.75;;;9.37;100.00
20444;BME280;10381;53.730;10.010;2022-09-30T07:49:28;100584.53;;;9.35;100.00
20444;BME280;10381;53.730;10.010;2022-09-30T07:53:29;100585.94;;;9.70;100.00
20444;BME280;10381;53.730;10.010;2022-09-30T07:57:29;100592.31;;;9.68;100.00
20444;BME280;10381;53.730;10.010;2022-09-30T08:01:29;100593.06;;;9.79;100.00
20444;BME280;10381;53.730;10.010;2022-09-30T08:05:30;100599.19;;;9.90;100.00
20444;BME280;10381;53.730;10.010;2022-09-30T08:09:30;100604.81;;;10.06;100.00
20444;BME280;10381;53.730;10.010;2022-09-30T08:13:31;100605.38;;;10.19;100.00
20444;BME280;10381;53.730;10.010;2022-09-30T08:17:32;100600.28;;;10.47;100.00
20444;BME280;10381;53.730;10.010;2022-09-30T08:21:32;100593.28;;;10.46;100.00
20444;BME280;10381;53.730;10.010;2022-09-30T08:25:32;100584.09;;;10.50;100.00
20444;BME280;10381;53.730;10.010;2022-09-30T08:29:32;100578.78;;;10.60;100.00
20444;BME280;10381;53.730;10.010;2022-09-30T08:33:33;100577.22;;;10.86;100.00
20444;BME280;10381;53.730;10.010;2022-09-30T08:37:33;100566.41;;;11.17;100.00
20444;BME280;10381;53.730;10.010;2022-09-30T08:42:02;100551.97;;;11.29;100.00
20444;BME280;10381;53.730;10.010;2022-09-30T08:54:31;100548.53;;;11.47;100.00
20444;BME280;10381;53.730;10.010;2022-09-30T08:58:36;100547.41;;;11.77;100.00
20444;BME280;10381;53.730;10.010;2022-09-30T09:02:48;100538.25;;;11.71;100.00
20444;BME280;10381;53.730;10.010;2022-09-30T09:06:58;100530.78;;;11.75;100.00
20444;BME280;10381;53.730;10.010;2022-09-30T09:11:08;100539.44;;;12.23;100.00
20444;BME280;10381;53.730;10.010;2022-09-30T09:19:36;100528.41;;;12.35;100.00
20444;BME280;10381;53.730;10.010;2022-09-30T09:23:39;100524.31;;;12.23;100.00
20444;BME280;10381;53.730;10.010;2022-09-30T09:27:57;100531.88;;;12.54;100.00
20444;BME280;10381;53.730;10.010;2022-09-30T09:31:59;100525.91;;;12.78;100.00
20444;BME280;10381;53.730;10.010;2022-09-30T09:36:10;100523.94;;;12.80;100.00
20444;BME280;10381;53.730;10.010;2022-09-30T09:40:22;100528.00;;;12.92;100.00
20444;BME280;10381;53.730;10.010;2022-09-30T09:44:48;100527.63;;;12.87;100.00
20444;BME280;10381;53.730;10.010;2022-09-30T09:49:30;100525.34;;;12.92;100.00
20444;BME280;10381;53.730;10.010;2022-09-30T09:53:46;100527.56;;;12.79;100.00
20444;BME280;10381;53.730;10.010;2022-09-30T09:57:46;100529.53;;;12.51;100.00
20444;BME280;10381;53.730;10.010;2022-09-30T10:01:52;100535.25;;;12.82;100.00
20444;BME280;10381;53.730;10.010;2022-09-30T10:10:19;100541.25;;;13.45;100.00
20444;BME280;10381;53.730;10.010;2022-09-30T10:14:20;100539.50;;;13.01;100.00
20444;BME280;10381;53.730;10.010;2022-09-30T10:18:28;100539.56;;;13.09;100.00
20444;BME280;10381;53.730;10.010;2022-09-30T10:22:30;100535.47;;;13.57;100.00
20444;BME280;10381;53.730;10.010;2022-09-30T10:26:42;100538.56;;;13.95;100.00
20444;BME280;10381;53.730;10.010;2022-09-30T10:30:55;100534.94;;;14.13;100.00
20444;BME280;10381;53.730;10.010;2022-09-30T10:35:19;100535.94;;;14.28;100.00
20444;BME280;10381;53.730;10.010;2022-09-30T10:39:28;100531.31;;;13.55;100.00
20444;BME280;10381;53.730;10.010;2022-09-30T10:43:33;100530.09;;;14.00;100.00
20444;BME280;10381;53.730;10.010;2022-09-30T10:47:43;100533.38;;;13.77;100.00
20444;BME280;10381;53.730;10.010;2022-09-30T10:51:45;100529.81;;;13.60;100.00
20444;BME280;10381;53.730;10.010;2022-09-30T10:55:45;100531.44;;;13.45;100.00
20444;BME280;10381;53.730;10.010;2022-09-30T10:59:46;100535.94;;;14.28;100.00
20444;BME280;10381;53.730;10.010;2022-09-30T11:07:59;100536.44;;;14.40;100.00
20444;BME280;10381;53.730;10.010;2022-09-30T11:12:08;100538.44;;;14.05;100.00
20444;BME280;10381;53.730;10.010;2022-09-30T11:16:26;100540.28;;;14.37;100.00
20444;BME280;10381;53.730;10.010;2022-09-30T11:20:31;100541.28;;;14.69;100.00
20444;BME280;10381;53.730;10.010;2022-09-30T11:24:41;100537.94;;;14.67;100.00
20444;BME280;10381;53.730;10.010;2022-09-30T11:41:45;100512.69;;;13.63;100.00
20444;BME280;10381;53.730;10.010;2022-09-30T11:58:47;100506.56;;;15.41;100.00
20444;BME280;10381;53.730;10.010;2022-09-30T12:06:58;100503.63;;;15.28;100.00
20444;BME280;10381;53.730;10.010;2022-09-30T12:11:14;100510.75;;;15.75;100.00
20444;BME280;10381;53.730;10.010;2022-09-30T12:15:19;100512.31;;;15.30;100.00
20444;BME280;10381;53.730;10.010;2022-09-30T12:19:31;100519.34;;;15.93;100.00
20444;BME280;10381;53.730;10.010;2022-09-30T12:23:43;100518.03;;;15.50;100.00
20444;BME280;10381;53.730;10.010;2022-09-30T12:41:44;100520.72;;;15.50;100.00
20444;BME280;10381;53.730;10.010;2022-09-30T12:49:55;100519.03;;;16.11;100.00
20444;BME280;10381;53.730;10.010;2022-09-30T12:54:04;100520.81;;;15.96;100.00
20444;BME280;10381;53.730;10.010;2022-09-30T12:58:16;100511.22;;;15.47;100.00
20444;BME280;10381;53.730;10.010;2022-09-30T13:02:39;100503.94;;;14.69;100.00
20444;BME280;10381;53.730;10.010;2022-09-30T13:10:45;100493.94;;;15.97;100.00
20444;BME280;10381;53.730;10.010;2022-09-30T13:14:47;100514.88;;;15.07;100.00
20444;BME280;10381;53.730;10.010;2022-09-30T13:22:53;100503.28;;;15.62;100.00
20444;BME280;10381;53.730;10.010;2022-09-30T13:27:06;100508.28;;;14.86;100.00
20444;BME280;10381;53.730;10.010;2022-09-30T13:31:11;100514.59;;;14.85;100.00
20444;BME280;10381;53.730;10.010;2022-09-30T13:35:46;100505.25;;;14.81;100.00
20444;BME280;10381;53.730;10.010;2022-09-30T13:39:53;100516.97;;;14.64;100.00
20444;BME280;10381;53.730;10.010;2022-09-30T13:44:05;100510.44;;;14.50;100.00
20444;BME280;10381;53.730;10.010;2022-09-30T13:48:15;100498.13;;;14.82;100.00
20444;BME280;10381;53.730;10.010;2022-09-30T13:52:30;100492.19;;;15.03;100.00
20444;BME280;10381;53.730;10.010;2022-09-30T13:56:33;100497.72;;;15.41;100.00
20444;BME280;10381;53.730;10.010;2022-09-30T14:00:55;100496.97;;;15.24;100.00
20444;BME280;10381;53.730;10.010;2022-09-30T14:13:52;100484.56;;;15.00;100.00
20444;BME280;10381;53.730;10.010;2022-09-30T14:22:26;100484.28;;;14.86;100.00
20444;BME280;10381;53.730;10.010;2022-09-30T14:30:42;100490.28;;;14.80;100.00
20444;BME280;10381;53.730;10.010;2022-09-30T14:35:07;100483.94;;;14.81;100.00
20444;BME280;10381;53.730;10.010;2022-09-30T14:39:17;100478.13;;;14.78;100.00
20444;BME280;10381;53.730;10.010;2022-09-30T14:43:22;100480.00;;;14.61;100.00
20444;BME280;10381;53.730;10.010;2022-09-30T14:47:24;100480.47;;;14.64;100.00
20444;BME280;10381;53.730;10.010;2022-09-30T14:51:26;100472.94;;;14.76;100.00
20444;BME280;10381;53.730;10.010;2022-09-30T14:55:34;100464.31;;;14.33;100.00
20444;BME280;10381;53.730;10.010;2022-09-30T14:59:35;100464.00;;;14.20;100.00
20444;BME280;10381;53.730;10.010;2022-09-30T15:03:38;100472.84;;;14.12;100.00
20444;BME280;10381;53.730;10.010;2022-09-30T15:07:40;100474.16;;;14.24;100.00
20444;BME280;10381;53.730;10.010;2022-09-30T15:11:41;100470.50;;;14.25;100.00
20444;BME280;10381;53.730;10.010;2022-09-30T15:15:41;100464.81;;;14.45;100.00
20444;BME280;10381;53.730;10.010;2022-09-30T15:19:42;100473.63;;;14.70;100.00
20444;BME280;10381;53.730;10.010;2022-09-30T15:23:49;100462.97;;;14.70;100.00
20444;BME280;10381;53.730;10.010;2022-09-30T15:27:51;100472.28;;;14.49;100.00
20444;BME280;10381;53.730;10.010;2022-09-30T15:32:19;100463.63;;;14.72;100.00
20444;BME280;10381;53.730;10.010;2022-09-30T15:36:17;100462.81;;;14.31;100.00
20444;BME280;10381;53.730;10.010;2022-09-30T15:40:20;100463.34;;;14.10;100.00
20444;BME280;10381;53.730;10.010;2022-09-30T15:44:39;100469.16;;;13.97;100.00
20444;BME280;10381;53.730;10.010;2022-09-30T15:48:41;100466.47;;;13.97;100.00
20444;BME280;10381;53.730;10.010;2022-09-30T15:52:43;100465.00;;;13.86;100.00
20444;BME280;10381;53.730;10.010;2022-09-30T15:56:44;100463.97;;;13.79;100.00
20444;BME280;10381;53.730;10.010;2022-09-30T16:00:45;100460.50;;;13.78;100.00
20444;BME280;10381;53.730;10.010;2022-09-30T16:04:49;100458.00;;;13.69;100.00
20444;BME280;10381;53.730;10.010;2022-09-30T16:08:54;100459.25;;;13.56;100.00
20444;BME280;10381;53.730;10.010;2022-09-30T16:12:58;100463.75;;;13.48;100.00
20444;BME280;10381;53.730;10.010;2022-09-30T16:17:01;100458.59;;;13.46;100.00
20444;BME280;10381;53.730;10.010;2022-09-30T16:21:04;100464.75;;;13.12;100.00
20444;BME280;10381;53.730;10.010;2022-09-30T16:25:17;100466.38;;;13.05;100.00
20444;BME280;10381;53.730;10.010;2022-09-30T16:29:18;100458.38;;;12.97;100.00
20444;BME280;10381;53.730;10.010;2022-09-30T16:33:19;100472.59;;;12.79;100.00
20444;BME280;10381;53.730;10.010;2022-09-30T16:37:19;100463.50;;;12.38;100.00
20444;BME280;10381;53.730;10.010;2022-09-30T16:41:20;100460.06;;;12.20;100.00
20444;BME280;10381;53.730;10.010;2022-09-30T16:45:21;100464.41;;;12.03;100.00
20444;BME280;10381;53.730;10.010;2022-09-30T16:49:21;100456.44;;;11.39;100.00
20444;BME280;10381;53.730;10.010;2022-09-30T16:53:21;100457.44;;;11.38;100.00
20444;BME280;10381;53.730;10.010;2022-09-30T16:57:22;100457.34;;;11.30;100.00
20444;BME280;10381;53.730;10.010;2022-09-30T17:01:23;100459.03;;;11.31;100.00
20444;BME280;10381;53.730;10.010;2022-09-30T17:05:25;100453.78;;;11.21;100.00
20444;BME280;10381;53.730;10.010;2022-09-30T17:09:25;100456.31;;;11.13;100.00
20444;BME280;10381;53.730;10.010;2022-09-30T17:13:26;100453.81;;;10.74;100.00
20444;BME280;10381;53.730;10.010;2022-09-30T17:17:26;100465.06;;;10.49;100.00
20444;BME280;10381;53.730;10.010;2022-09-30T17:21:27;100475.25;;;10.05;100.00
20444;BME280;10381;53.730;10.010;2022-09-30T17:25:27;100481.66;;;9.82;100.00
20444;BME280;10381;53.730;10.010;2022-09-30T17:29:27;100490.97;;;9.57;100.00
20444;BME280;10381;53.730;10.010;2022-09-30T17:33:32;100491.00;;;9.27;100.00
20444;BME280;10381;53.730;10.010;2022-09-30T17:37:34;100493.47;;;9.18;100.00
20444;BME280;10381;53.730;10.010;2022-09-30T17:41:34;100503.19;;;9.08;100.00
20444;BME280;10381;53.730;10.010;2022-09-30T17:45:57;100510.19;;;9.19;100.00
20444;BME280;10381;53.730;10.010;2022-09-30T17:49:58;100517.88;;;8.70;100.00
20444;BME280;10381;53.730;10.010;2022-09-30T17:53:58;100513.56;;;8.69;100.00
20444;BME280;10381;53.730;10.010;2022-09-30T17:57:59;100504.88;;;8.58;100.00
20444;BME280;10381;53.730;10.010;2022-09-30T18:02:02;100506.44;;;8.28;100.00
20444;BME280;10381;53.730;10.010;2022-09-30T18:06:03;100518.66;;;8.40;100.00
20444;BME280;10381;53.730;10.010;2022-09-30T18:10:03;100522.75;;;8.33;100.00
20444;BME280;10381;53.730;10.010;2022-09-30T18:14:04;100523.75;;;8.21;100.00
20444;BME280;10381;53.730;10.010;2022-09-30T18:18:04;100530.97;;;8.19;100.00
20444;BME280;10381;53.730;10.010;2022-09-30T18:22:04;100530.84;;;8.20;100.00
20444;BME280;10381;53.730;10.010;2022-09-30T18:26:05;100539.16;;;8.04;100.00
20444;BME280;10381;53.730;10.010;2022-09-30T18:30:05;100528.19;;;7.88;100.00
20444;BME280;10381;53.730;10.010;2022-09-30T18:34:06;100523.91;;;7.76;100.00
20444;BME280;10381;53.730;10.010;2022-09-30T18:38:06;100535.16;;;7.89;100.00
20444;BME280;10381;53.730;10.010;2022-09-30T18:42:06;100533.09;;;7.81;100.00
20444;BME280;10381;53.730;10.010;2022-09-30T18:46:07;100539.66;;;7.98;100.00
20444;BME280;10381;53.730;10.010;2022-09-30T18:50:09;100539.06;;;8.06;100.00
20444;BME280;10381;53.730;10.010;2022-09-30T18:54:10;100524.59;;;7.89;100.00
20444;BME280;10381;53.730;10.010;2022-09-30T18:58:14;100520.25;;;7.99;100.00
20444;BME280;10381;53.730;10.010;2022-09-30T19:02:17;100512.63;;;7.85;100.00
20444;BME280;10381;53.730;10.010;2022-09-30T19:06:20;100516.22;;;8.16;100.00
20444;BME280;10381;53.730;10.010;2022-09-30T19:10:21;100511.88;;;8.15;100.00
20444;BME280;10381;53.730;10.010;2022-09-30T19:14:23;100505.53;;;8.18;100.00
20444;BME280;10381;53.730;10.010;2022-09-30T19:18:23;100513.44;;;8.18;100.00
20444;BME280;10381;53.730;10.010;2022-09-30T19:22:24;100506.16;;;8.10;100.00
20444;BME280;10381;53.730;10.010;2022-09-30T19:26:25;100508.25;;;7.95;100.00
20444;BME280;10381;53.730;10.010;2022-09-30T19:30:29;100507.78;;;8.01;100.00
20444;BME280;10381;53.730;10.010;2022-09-30T19:34:29;100499.41;;;8.17;100.00
20444;BME280;10381;53.730;10.010;2022-09-30T19:38:31;100493.16;;;7.97;100.00
20444;BME280;10381;53.730;10.010;2022-09-30T19:42:32;100483.53;;;8.28;100.00
20444;BME280;10381;53.730;10.010;2022-09-30T19:46:32;100471.47;;;8.15;100.00
20444;BME280;10381;53.730;10.010;2022-09-30T19:50:32;100466.31;;;8.45;100.00
20444;BME280;10381;53.730;10.010;2022-09-30T19:54:34;100466.47;;;8.53;100.00
20444;BME280;10381;53.730;10.010;2022-09-30T19:58:41;100449.09;;;8.30;100.00
20444;BME280;10381;53.730;10.010;2022-09-30T20:02:42;100442.53;;;8.45;100.00
20444;BME280;10381;53.730;10.010;2022-09-30T20:06:43;100433.41;;;8.49;100.00
20444;BME280;10381;53.730;10.010;2022-09-30T20:10:43;100435.75;;;8.31;100.00
20444;BME280;10381;53.730;10.010;2022-09-30T20:14:44;100427.28;;;8.28;100.00
20444;BME280;10381;53.730;10.010;2022-09-30T20:19:02;100429.47;;;8.23;100.00
20444;BME280;10381;53.730;10.010;2022-09-30T20:23:03;100425.19;;;8.31;100.00
20444;BME280;10381;53.730;10.010;2022-09-30T20:27:03;100427.66;;;8.23;100.00
20444;BME280;10381;53.730;10.010;2022-09-30T20:31:05;100415.63;;;8.09;100.00
20444;BME280;10381;53.730;10.010;2022-09-30T20:35:06;100418.97;;;8.11;100.00
20444;BME280;10381;53.730;10.010;2022-09-30T20:39:07;100424.69;;;8.17;100.00
20444;BME280;10381;53.730;10.010;2022-09-30T20:43:08;100428.22;;;8.27;100.00
20444;BME280;10381;53.730;10.010;2022-09-30T20:47:08;100417.09;;;8.02;100.00
20444;BME280;10381;53.730;10.010;2022-09-30T20:51:11;100417.94;;;8.03;100.00
20444;BME280;10381;53.730;10.010;2022-09-30T20:55:12;100423.78;;;7.85;100.00
20444;BME280;10381;53.730;10.010;2022-09-30T20:59:12;100417.41;;;7.88;100.00
20444;BME280;10381;53.730;10.010;2022-09-30T21:03:13;100409.44;;;7.99;100.00
20444;BME280;10381;53.730;10.010;2022-09-30T21:07:14;100420.66;;;7.92;100.00
20444;BME280;10381;53.730;10.010;2022-09-30T21:11:14;100409.38;;;7.89;100.00
20444;BME280;10381;53.730;10.010;2022-09-30T21:15:14;100405.50;;;7.94;100.00
20444;BME280;10381;53.730;10.010;2022-09-30T21:19:15;100401.47;;;8.10;100.00
20444;BME280;10381;53.730;10.010;2022-09-30T21:23:15;100399.78;;;7.88;100.00
20444;BME280;10381;53.730;10.010;2022-09-30T21:27:16;100401.97;;;8.04;100.00
20444;BME280;10381;53.730;10.010;2022-09-30T21:31:20;100398.63;;;8.02;100.00
20444;BME280;10381;53.730;10.010;2022-09-30T21:35:21;100388.91;;;8.03;100.00
20444;BME280;10381;53.730;10.010;2022-09-30T21:39:21;100371.47;;;8.11;100.00
20444;BME280;10381;53.730;10.010;2022-09-30T21:43:21;100375.41;;;7.96;100.00
20444;BME280;10381;53.730;10.010;2022-09-30T21:47:21;100369.16;;;7.97;100.00
20444;BME280;10381;53.730;10.010;2022-09-30T21:51:22;100370.97;;;7.97;100.00
20444;BME280;10381;53.730;10.010;2022-09-30T21:55:27;100367.09;;;8.01;100.00
20444;BME280;10381;53.730;10.010;2022-09-30T21:59:27;100361.97;;;7.99;100.00
20444;BME280;10381;53.730;10.010;2022-09-30T22:03:28;100363.63;;;8.00;100.00
20444;BME280;10381;53.730;10.010;2022-09-30T22:07:30;100347.84;;;8.10;100.00
20444;BME280;10381;53.730;10.010;2022-09-30T22:11:32;100350.53;;;7.89;100.00
20444;BME280;10381;53.730;10.010;2022-09-30T22:15:32;100339.75;;;8.02;100.00
20444;BME280;10381;53.730;10.010;2022-09-30T22:19:33;100343.66;;;8.07;100.00
20444;BME280;10381;53.730;10.010;2022-09-30T22:23:34;100340.13;;;8.18;100.00
20444;BME280;10381;53.730;10.010;2022-09-30T22:27:34;100336.81;;;7.95;100.00
20444;BME280;10381;53.730;10.010;2022-09-30T22:31:35;100339.66;;;8.03;100.00
20444;BME280;10381;53.730;10.010;2022-09-30T22:35:35;100331.03;;;8.01;100.00
20444;BME280;10381;53.730;10.010;2022-09-30T22:39:54;100327.72;;;8.09;100.00
20444;BME280;10381;53.730;10.010;2022-09-30T22:43:54;100326.84;;;8.29;100.00
20444;BME280;10381;53.730;10.010;2022-09-30T22:47:55;100324.66;;;8.35;100.00
20444;BME280;10381;53.730;10.010;2022-09-30T22:51:57;100312.66;;;8.51;100.00
20444;BME280;10381;53.730;10.010;2022-09-30T22:56:02;100308.06;;;8.53;100.00
20444;BME280;10381;53.730;10.010;2022-09-30T23:00:03;100297.97;;;8.59;100.00
20444;BME280;10381;53.730;10.010;2022-09-30T23:04:05;100285.28;;;8.52;100.00
20444;BME280;10381;53.730;10.010;2022-09-30T23:08:07;100288.72;;;8.43;100.00
20444;BME280;10381;53.730;10.010;2022-09-30T23:12:07;100281.13;;;8.29;100.00
20444;BME280;10381;53.730;10.010;2022-09-30T23:16:08;100282.63;;;8.22;100.00